Terminal Aerodrome Forecast
Issued by NWS

Home | Current Version | Previous Version | Text Only | Print | Product List | Glossary On
Versions: 1 2 3 4 5 6 7 8 9 10 11 12 13 14 15 16 17
574
FTUS43 KFGF 220520
TAFBJI
TAF
KBJI 220520Z 2206/2306 20004KT P6SM FEW250
     FM221700 17008KT P6SM FEW250
     FM230000 14004KT 6SM -SN BKN060
     FM230200 14005KT 2SM -SN OVC020=

USA.gov is the U.S. government's official web portal to all federal, state and local government web resources and services.